sensor_id;sensor_type;location;lat;lon;timestamp;P1;durP1;ratioP1;P2;durP2;ratioP2
20970;SDS011;10644;48.834;10.088;2023-04-08T00:00:32;10.60;;;8.33;;
20970;SDS011;10644;48.834;10.088;2023-04-08T00:02:58;13.43;;;10.00;;
20970;SDS011;10644;48.834;10.088;2023-04-08T00:05:23;13.60;;;10.20;;
20970;SDS011;10644;48.834;10.088;2023-04-08T00:07:48;17.77;;;10.03;;
20970;SDS011;10644;48.834;10.088;2023-04-08T00:10:14;12.07;;;9.37;;
20970;SDS011;10644;48.834;10.088;2023-04-08T00:12:39;14.80;;;10.93;;
20970;SDS011;10644;48.834;10.088;2023-04-08T00:15:05;13.43;;;9.63;;
20970;SDS011;10644;48.834;10.088;2023-04-08T00:17:30;13.43;;;9.80;;
20970;SDS011;10644;48.834;10.088;2023-04-08T00:19:57;13.45;;;10.00;;
20970;SDS011;10644;48.834;10.088;2023-04-08T00:22:22;15.30;;;10.13;;
20970;SDS011;10644;48.834;10.088;2023-04-08T00:24:48;12.30;;;9.70;;
20970;SDS011;10644;48.834;10.088;2023-04-08T00:27:13;14.53;;;9.73;;
20970;SDS011;10644;48.834;10.088;2023-04-08T00:29:39;15.03;;;10.47;;
20970;SDS011;10644;48.834;10.088;2023-04-08T00:32:04;14.17;;;10.10;;
20970;SDS011;10644;48.834;10.088;2023-04-08T00:34:30;13.27;;;10.23;;
20970;SDS011;10644;48.834;10.088;2023-04-08T00:36:55;15.90;;;10.30;;
20970;SDS011;10644;48.834;10.088;2023-04-08T00:39:21;14.70;;;10.50;;
20970;SDS011;10644;48.834;10.088;2023-04-08T00:41:47;13.60;;;9.60;;
20970;SDS011;10644;48.834;10.088;2023-04-08T00:44:12;14.73;;;10.80;;
20970;SDS011;10644;48.834;10.088;2023-04-08T00:46:38;14.87;;;9.70;;
20970;SDS011;10644;48.834;10.088;2023-04-08T00:49:05;17.73;;;10.70;;
20970;SDS011;10644;48.834;10.088;2023-04-08T00:51:31;15.30;;;9.80;;
20970;SDS011;10644;48.834;10.088;2023-04-08T00:54:00;14.87;;;11.10;;
20970;SDS011;10644;48.834;10.088;2023-04-08T00:56:26;14.63;;;10.80;;
20970;SDS011;10644;48.834;10.088;2023-04-08T00:58:54;12.90;;;9.93;;
20970;SDS011;10644;48.834;10.088;2023-04-08T01:02:02;14.73;;;10.50;;
20970;SDS011;10644;48.834;10.088;2023-04-08T01:04:15;14.77;;;10.60;;
20970;SDS011;10644;48.834;10.088;2023-04-08T01:06:49;13.70;;;10.20;;
20970;SDS011;10644;48.834;10.088;2023-04-08T01:09:22;19.13;;;10.50;;
20970;SDS011;10644;48.834;10.088;2023-04-08T01:11:51;14.47;;;10.10;;
20970;SDS011;10644;48.834;10.088;2023-04-08T01:14:22;13.70;;;9.97;;
20970;SDS011;10644;48.834;10.088;2023-04-08T01:16:51;19.97;;;10.33;;
20970;SDS011;10644;48.834;10.088;2023-04-08T01:19:26;17.77;;;10.87;;
20970;SDS011;10644;48.834;10.088;2023-04-08T01:22:00;16.57;;;10.10;;
20970;SDS011;10644;48.834;10.088;2023-04-08T01:24:32;17.00;;;10.60;;
20970;SDS011;10644;48.834;10.088;2023-04-08T01:27:01;19.90;;;11.57;;
20970;SDS011;10644;48.834;10.088;2023-04-08T01:29:28;18.07;;;12.77;;
20970;SDS011;10644;48.834;10.088;2023-04-08T01:31:54;20.60;;;10.83;;
20970;SDS011;10644;48.834;10.088;2023-04-08T01:34:21;18.93;;;10.70;;
20970;SDS011;10644;48.834;10.088;2023-04-08T01:36:48;17.07;;;12.67;;
20970;SDS011;10644;48.834;10.088;2023-04-08T01:39:15;18.30;;;11.40;;
20970;SDS011;10644;48.834;10.088;2023-04-08T01:41:42;16.33;;;10.80;;
20970;SDS011;10644;48.834;10.088;2023-04-08T01:44:09;18.03;;;11.70;;
20970;SDS011;10644;48.834;10.088;2023-04-08T01:46:36;18.57;;;11.73;;
20970;SDS011;10644;48.834;10.088;2023-04-08T01:49:02;15.97;;;11.73;;
20970;SDS011;10644;48.834;10.088;2023-04-08T01:51:30;18.30;;;12.47;;
20970;SDS011;10644;48.834;10.088;2023-04-08T01:53:57;17.93;;;11.73;;
20970;SDS011;10644;48.834;10.088;2023-04-08T01:56:22;15.37;;;11.20;;
20970;SDS011;10644;48.834;10.088;2023-04-08T01:58:53;20.50;;;11.97;;
20970;SDS011;10644;48.834;10.088;2023-04-08T02:01:22;21.53;;;13.77;;
20970;SDS011;10644;48.834;10.088;2023-04-08T02:03:51;17.30;;;13.00;;
20970;SDS011;10644;48.834;10.088;2023-04-08T02:06:21;20.20;;;13.37;;
20970;SDS011;10644;48.834;10.088;2023-04-08T02:08:46;21.47;;;13.23;;
20970;SDS011;10644;48.834;10.088;2023-04-08T02:11:12;20.37;;;13.03;;
20970;SDS011;10644;48.834;10.088;2023-04-08T02:13:37;20.23;;;13.53;;
20970;SDS011;10644;48.834;10.088;2023-04-08T02:16:03;21.07;;;12.30;;
20970;SDS011;10644;48.834;10.088;2023-04-08T02:18:36;18.63;;;13.00;;
20970;SDS011;10644;48.834;10.088;2023-04-08T02:23:43;16.70;;;11.17;;
20970;SDS011;10644;48.834;10.088;2023-04-08T02:26:13;16.93;;;11.47;;
20970;SDS011;10644;48.834;10.088;2023-04-08T02:28:40;21.50;;;13.07;;
20970;SDS011;10644;48.834;10.088;2023-04-08T02:31:10;19.67;;;13.83;;
20970;SDS011;10644;48.834;10.088;2023-04-08T02:33:39;20.67;;;13.00;;
20970;SDS011;10644;48.834;10.088;2023-04-08T02:36:06;20.23;;;13.20;;
20970;SDS011;10644;48.834;10.088;2023-04-08T02:38:32;19.07;;;12.50;;
20970;SDS011;10644;48.834;10.088;2023-04-08T02:40:58;22.17;;;13.53;;
20970;SDS011;10644;48.834;10.088;2023-04-08T02:43:23;19.57;;;12.73;;
20970;SDS011;10644;48.834;10.088;2023-04-08T02:45:56;19.70;;;12.50;;
20970;SDS011;10644;48.834;10.088;2023-04-08T02:48:23;19.30;;;12.80;;
20970;SDS011;10644;48.834;10.088;2023-04-08T02:50:48;19.77;;;13.10;;
20970;SDS011;10644;48.834;10.088;2023-04-08T02:53:14;22.53;;;14.40;;
20970;SDS011;10644;48.834;10.088;2023-04-08T02:55:39;22.63;;;13.73;;
20970;SDS011;10644;48.834;10.088;2023-04-08T02:58:05;17.93;;;13.30;;
20970;SDS011;10644;48.834;10.088;2023-04-08T03:00:30;22.87;;;13.83;;
20970;SDS011;10644;48.834;10.088;2023-04-08T03:02:56;25.70;;;12.60;;
20970;SDS011;10644;48.834;10.088;2023-04-08T03:05:21;23.37;;;13.97;;
20970;SDS011;10644;48.834;10.088;2023-04-08T03:07:46;22.57;;;13.20;;
20970;SDS011;10644;48.834;10.088;2023-04-08T03:10:12;17.60;;;11.87;;
20970;SDS011;10644;48.834;10.088;2023-04-08T03:12:37;21.77;;;14.20;;
20970;SDS011;10644;48.834;10.088;2023-04-08T03:15:02;26.63;;;14.00;;
20970;SDS011;10644;48.834;10.088;2023-04-08T03:17:28;25.50;;;14.27;;
20970;SDS011;10644;48.834;10.088;2023-04-08T03:19:57;22.07;;;14.23;;
20970;SDS011;10644;48.834;10.088;2023-04-08T03:22:23;20.30;;;13.33;;
20970;SDS011;10644;48.834;10.088;2023-04-08T03:24:48;25.90;;;14.70;;
20970;SDS011;10644;48.834;10.088;2023-04-08T03:27:13;23.63;;;15.07;;
20970;SDS011;10644;48.834;10.088;2023-04-08T03:29:39;26.07;;;15.00;;
20970;SDS011;10644;48.834;10.088;2023-04-08T03:32:07;20.70;;;13.00;;
20970;SDS011;10644;48.834;10.088;2023-04-08T03:34:33;24.97;;;14.60;;
20970;SDS011;10644;48.834;10.088;2023-04-08T03:36:59;24.10;;;14.13;;
20970;SDS011;10644;48.834;10.088;2023-04-08T03:39:25;21.60;;;15.03;;
20970;SDS011;10644;48.834;10.088;2023-04-08T03:41:50;25.17;;;14.57;;
20970;SDS011;10644;48.834;10.088;2023-04-08T03:44:16;22.43;;;13.87;;
20970;SDS011;10644;48.834;10.088;2023-04-08T03:46:41;23.20;;;14.17;;
20970;SDS011;10644;48.834;10.088;2023-04-08T03:49:06;24.30;;;14.50;;
20970;SDS011;10644;48.834;10.088;2023-04-08T03:51:32;25.20;;;15.60;;
20970;SDS011;10644;48.834;10.088;2023-04-08T03:53:57;28.70;;;15.77;;
20970;SDS011;10644;48.834;10.088;2023-04-08T03:56:22;24.60;;;15.03;;
20970;SDS011;10644;48.834;10.088;2023-04-08T03:58:49;31.17;;;16.50;;
20970;SDS011;10644;48.834;10.088;2023-04-08T04:01:14;25.20;;;15.67;;
20970;SDS011;10644;48.834;10.088;2023-04-08T04:03:39;27.27;;;16.50;;
20970;SDS011;10644;48.834;10.088;2023-04-08T04:06:05;28.37;;;16.73;;
20970;SDS011;10644;48.834;10.088;2023-04-08T04:08:30;26.77;;;16.40;;
20970;SDS011;10644;48.834;10.088;2023-04-08T04:10:57;29.40;;;15.97;;
20970;SDS011;10644;48.834;10.088;2023-04-08T04:13:23;26.03;;;15.70;;
20970;SDS011;10644;48.834;10.088;2023-04-08T04:15:48;26.80;;;15.73;;
20970;SDS011;10644;48.834;10.088;2023-04-08T04:18:13;27.73;;;16.90;;
20970;SDS011;10644;48.834;10.088;2023-04-08T04:20:40;28.33;;;16.60;;
20970;SDS011;10644;48.834;10.088;2023-04-08T04:23:06;26.40;;;15.90;;
20970;SDS011;10644;48.834;10.088;2023-04-08T04:25:31;26.67;;;15.93;;
20970;SDS011;10644;48.834;10.088;2023-04-08T04:27:57;30.40;;;17.17;;
20970;SDS011;10644;48.834;10.088;2023-04-08T04:30:22;29.23;;;16.70;;
20970;SDS011;10644;48.834;10.088;2023-04-08T04:32:48;30.57;;;18.27;;
20970;SDS011;10644;48.834;10.088;2023-04-08T04:35:13;33.07;;;18.37;;
20970;SDS011;10644;48.834;10.088;2023-04-08T04:37:38;30.50;;;17.67;;
20970;SDS011;10644;48.834;10.088;2023-04-08T04:40:04;23.20;;;15.50;;
20970;SDS011;10644;48.834;10.088;2023-04-08T04:42:30;28.45;;;16.40;;
20970;SDS011;10644;48.834;10.088;2023-04-08T04:44:56;32.53;;;18.67;;
20970;SDS011;10644;48.834;10.088;2023-04-08T04:47:21;32.60;;;17.57;;
20970;SDS011;10644;48.834;10.088;2023-04-08T04:49:47;34.40;;;17.97;;
20970;SDS011;10644;48.834;10.088;2023-04-08T04:52:12;27.33;;;17.20;;
20970;SDS011;10644;48.834;10.088;2023-04-08T04:54:38;36.20;;;18.87;;
20970;SDS011;10644;48.834;10.088;2023-04-08T04:57:03;32.57;;;17.33;;
20970;SDS011;10644;48.834;10.088;2023-04-08T04:59:28;27.47;;;16.93;;
20970;SDS011;10644;48.834;10.088;2023-04-08T05:01:54;31.90;;;18.10;;
20970;SDS011;10644;48.834;10.088;2023-04-08T05:04:21;29.80;;;16.73;;
20970;SDS011;10644;48.834;10.088;2023-04-08T05:06:47;29.40;;;17.90;;
20970;SDS011;10644;48.834;10.088;2023-04-08T05:09:13;31.07;;;17.67;;
20970;SDS011;10644;48.834;10.088;2023-04-08T05:11:38;30.80;;;16.70;;
20970;SDS011;10644;48.834;10.088;2023-04-08T05:14:03;29.20;;;17.40;;
20970;SDS011;10644;48.834;10.088;2023-04-08T05:16:31;31.83;;;18.50;;
20970;SDS011;10644;48.834;10.088;2023-04-08T05:18:57;31.98;;;18.70;;
20970;SDS011;10644;48.834;10.088;2023-04-08T05:21:22;29.70;;;17.37;;
20970;SDS011;10644;48.834;10.088;2023-04-08T05:23:48;31.77;;;19.10;;
20970;SDS011;10644;48.834;10.088;2023-04-08T05:26:16;31.47;;;18.17;;
20970;SDS011;10644;48.834;10.088;2023-04-08T05:28:43;32.72;;;19.45;;
20970;SDS011;10644;48.834;10.088;2023-04-08T05:31:08;32.80;;;18.17;;
20970;SDS011;10644;48.834;10.088;2023-04-08T05:33:33;30.87;;;17.97;;
20970;SDS011;10644;48.834;10.088;2023-04-08T05:35:59;33.53;;;18.80;;
20970;SDS011;10644;48.834;10.088;2023-04-08T05:38:24;27.93;;;17.47;;
20970;SDS011;10644;48.834;10.088;2023-04-08T05:40:50;29.90;;;18.03;;
20970;SDS011;10644;48.834;10.088;2023-04-08T05:43:15;28.73;;;17.63;;
20970;SDS011;10644;48.834;10.088;2023-04-08T05:45:40;33.67;;;19.33;;
20970;SDS011;10644;48.834;10.088;2023-04-08T05:48:08;31.75;;;18.05;;
20970;SDS011;10644;48.834;10.088;2023-04-08T05:50:36;34.27;;;20.47;;
20970;SDS011;10644;48.834;10.088;2023-04-08T05:53:01;31.47;;;18.70;;
20970;SDS011;10644;48.834;10.088;2023-04-08T05:55:27;35.10;;;20.83;;
20970;SDS011;10644;48.834;10.088;2023-04-08T05:57:52;32.30;;;17.00;;
20970;SDS011;10644;48.834;10.088;2023-04-08T06:00:17;34.00;;;18.27;;
20970;SDS011;10644;48.834;10.088;2023-04-08T06:02:44;38.10;;;19.33;;
20970;SDS011;10644;48.834;10.088;2023-04-08T06:05:10;27.77;;;17.17;;
20970;SDS011;10644;48.834;10.088;2023-04-08T06:07:35;28.20;;;17.47;;
20970;SDS011;10644;48.834;10.088;2023-04-08T06:10:01;36.30;;;20.65;;
20970;SDS011;10644;48.834;10.088;2023-04-08T06:12:29;36.58;;;19.90;;
20970;SDS011;10644;48.834;10.088;2023-04-08T06:14:56;34.53;;;19.20;;
20970;SDS011;10644;48.834;10.088;2023-04-08T06:17:24;34.00;;;18.50;;
20970;SDS011;10644;48.834;10.088;2023-04-08T06:19:50;31.73;;;18.07;;
20970;SDS011;10644;48.834;10.088;2023-04-08T06:22:15;26.87;;;17.20;;
20970;SDS011;10644;48.834;10.088;2023-04-08T06:24:41;35.90;;;19.00;;
20970;SDS011;10644;48.834;10.088;2023-04-08T06:27:06;32.53;;;18.00;;
20970;SDS011;10644;48.834;10.088;2023-04-08T06:29:31;28.70;;;16.70;;
20970;SDS011;10644;48.834;10.088;2023-04-08T06:31:57;30.70;;;17.70;;
20970;SDS011;10644;48.834;10.088;2023-04-08T06:34:23;33.80;;;19.67;;
20970;SDS011;10644;48.834;10.088;2023-04-08T06:36:48;30.20;;;18.87;;
20970;SDS011;10644;48.834;10.088;2023-04-08T06:39:14;27.77;;;16.77;;
20970;SDS011;10644;48.834;10.088;2023-04-08T06:41:40;28.27;;;17.20;;
20970;SDS011;10644;48.834;10.088;2023-04-08T06:44:06;35.00;;;18.10;;
20970;SDS011;10644;48.834;10.088;2023-04-08T06:46:31;32.77;;;18.60;;
20970;SDS011;10644;48.834;10.088;2023-04-08T06:48:57;30.17;;;17.70;;
20970;SDS011;10644;48.834;10.088;2023-04-08T06:51:22;30.63;;;18.43;;
20970;SDS011;10644;48.834;10.088;2023-04-08T06:53:47;29.37;;;17.50;;
20970;SDS011;10644;48.834;10.088;2023-04-08T06:56:13;30.07;;;17.67;;
20970;SDS011;10644;48.834;10.088;2023-04-08T06:58:38;32.03;;;18.03;;
20970;SDS011;10644;48.834;10.088;2023-04-08T07:01:03;33.53;;;17.27;;
20970;SDS011;10644;48.834;10.088;2023-04-08T07:03:29;29.00;;;17.60;;
20970;SDS011;10644;48.834;10.088;2023-04-08T07:05:57;31.52;;;18.50;;
20970;SDS011;10644;48.834;10.088;2023-04-08T07:08:22;30.23;;;18.63;;
20970;SDS011;10644;48.834;10.088;2023-04-08T07:10:47;30.90;;;18.80;;
20970;SDS011;10644;48.834;10.088;2023-04-08T07:13:13;35.07;;;18.17;;
20970;SDS011;10644;48.834;10.088;2023-04-08T07:15:39;31.50;;;18.93;;
20970;SDS011;10644;48.834;10.088;2023-04-08T07:18:05;34.55;;;20.08;;
20970;SDS011;10644;48.834;10.088;2023-04-08T07:20:30;30.83;;;18.83;;
20970;SDS011;10644;48.834;10.088;2023-04-08T07:22:55;32.30;;;18.77;;
20970;SDS011;10644;48.834;10.088;2023-04-08T07:25:21;32.37;;;19.30;;
20970;SDS011;10644;48.834;10.088;2023-04-08T07:27:46;29.33;;;18.37;;
20970;SDS011;10644;48.834;10.088;2023-04-08T07:30:11;30.37;;;17.53;;
20970;SDS011;10644;48.834;10.088;2023-04-08T07:32:37;32.57;;;19.20;;
20970;SDS011;10644;48.834;10.088;2023-04-08T07:35:02;31.67;;;19.57;;
20970;SDS011;10644;48.834;10.088;2023-04-08T07:37:28;30.07;;;18.10;;
20970;SDS011;10644;48.834;10.088;2023-04-08T07:39:53;32.23;;;19.20;;
20970;SDS011;10644;48.834;10.088;2023-04-08T07:42:19;31.63;;;18.60;;
20970;SDS011;10644;48.834;10.088;2023-04-08T07:44:44;33.13;;;19.13;;
20970;SDS011;10644;48.834;10.088;2023-04-08T07:47:13;30.43;;;18.40;;
20970;SDS011;10644;48.834;10.088;2023-04-08T07:49:40;36.28;;;18.38;;
20970;SDS011;10644;48.834;10.088;2023-04-08T07:52:05;32.70;;;17.87;;
20970;SDS011;10644;48.834;10.088;2023-04-08T07:54:31;36.37;;;18.93;;
20970;SDS011;10644;48.834;10.088;2023-04-08T07:57:00;30.23;;;18.30;;
20970;SDS011;10644;48.834;10.088;2023-04-08T07:59:27;31.10;;;18.55;;
20970;SDS011;10644;48.834;10.088;2023-04-08T08:01:55;31.77;;;18.07;;
20970;SDS011;10644;48.834;10.088;2023-04-08T08:04:21;28.13;;;18.53;;
20970;SDS011;10644;48.834;10.088;2023-04-08T08:06:49;31.20;;;18.52;;
20970;SDS011;10644;48.834;10.088;2023-04-08T08:09:14;29.57;;;16.17;;
20970;SDS011;10644;48.834;10.088;2023-04-08T08:11:40;36.00;;;22.27;;
20970;SDS011;10644;48.834;10.088;2023-04-08T08:14:05;33.70;;;19.43;;
20970;SDS011;10644;48.834;10.088;2023-04-08T08:16:31;44.37;;;19.90;;
20970;SDS011;10644;48.834;10.088;2023-04-08T08:18:57;39.43;;;19.10;;
20970;SDS011;10644;48.834;10.088;2023-04-08T08:21:23;28.67;;;18.43;;
20970;SDS011;10644;48.834;10.088;2023-04-08T08:23:53;30.40;;;18.63;;
20970;SDS011;10644;48.834;10.088;2023-04-08T08:26:21;28.43;;;17.43;;
20970;SDS011;10644;48.834;10.088;2023-04-08T08:28:47;30.27;;;18.27;;
20970;SDS011;10644;48.834;10.088;2023-04-08T08:31:12;29.97;;;18.70;;
20970;SDS011;10644;48.834;10.088;2023-04-08T08:33:37;25.70;;;17.53;;
20970;SDS011;10644;48.834;10.088;2023-04-08T08:36:03;31.80;;;18.23;;
20970;SDS011;10644;48.834;10.088;2023-04-08T08:38:29;36.23;;;17.83;;
20970;SDS011;10644;48.834;10.088;2023-04-08T08:40:55;33.00;;;17.70;;
20970;SDS011;10644;48.834;10.088;2023-04-08T08:43:23;26.70;;;17.20;;
20970;SDS011;10644;48.834;10.088;2023-04-08T08:45:53;30.57;;;17.57;;
20970;SDS011;10644;48.834;10.088;2023-04-08T08:48:22;29.93;;;17.90;;
20970;SDS011;10644;48.834;10.088;2023-04-08T08:50:47;27.90;;;17.27;;
20970;SDS011;10644;48.834;10.088;2023-04-08T08:53:14;31.27;;;17.00;;
20970;SDS011;10644;48.834;10.088;2023-04-08T08:55:40;66.80;;;24.07;;
20970;SDS011;10644;48.834;10.088;2023-04-08T08:58:05;32.00;;;17.87;;
20970;SDS011;10644;48.834;10.088;2023-04-08T09:00:34;30.33;;;16.93;;
20970;SDS011;10644;48.834;10.088;2023-04-08T09:03:25;31.90;;;17.90;;
20970;SDS011;10644;48.834;10.088;2023-04-08T09:05:58;26.03;;;15.17;;
20970;SDS011;10644;48.834;10.088;2023-04-08T09:08:28;52.43;;;17.90;;
20970;SDS011;10644;48.834;10.088;2023-04-08T09:13:36;27.73;;;17.23;;
20970;SDS011;10644;48.834;10.088;2023-04-08T09:16:02;33.50;;;18.20;;
20970;SDS011;10644;48.834;10.088;2023-04-08T09:18:33;28.70;;;17.10;;
20970;SDS011;10644;48.834;10.088;2023-04-08T09:21:02;33.40;;;18.10;;
20970;SDS011;10644;48.834;10.088;2023-04-08T09:23:47;29.53;;;16.67;;
20970;SDS011;10644;48.834;10.088;2023-04-08T09:26:14;32.20;;;17.23;;
20970;SDS011;10644;48.834;10.088;2023-04-08T09:28:55;31.57;;;16.07;;
20970;SDS011;10644;48.834;10.088;2023-04-08T09:31:40;29.23;;;16.73;;
20970;SDS011;10644;48.834;10.088;2023-04-08T09:34:12;36.42;;;17.17;;
20970;SDS011;10644;48.834;10.088;2023-04-08T09:36:41;25.47;;;17.40;;
20970;SDS011;10644;48.834;10.088;2023-04-08T09:39:08;31.80;;;16.87;;
20970;SDS011;10644;48.834;10.088;2023-04-08T09:41:33;27.27;;;16.10;;
20970;SDS011;10644;48.834;10.088;2023-04-08T09:44:01;26.27;;;17.07;;
20970;SDS011;10644;48.834;10.088;2023-04-08T09:49:12;25.93;;;16.07;;
20970;SDS011;10644;48.834;10.088;2023-04-08T09:51:48;28.57;;;16.23;;
20970;SDS011;10644;48.834;10.088;2023-04-08T09:54:22;29.93;;;17.60;;
20970;SDS011;10644;48.834;10.088;2023-04-08T09:56:58;30.10;;;16.23;;
20970;SDS011;10644;48.834;10.088;2023-04-08T09:59:29;28.13;;;17.40;;
20970;SDS011;10644;48.834;10.088;2023-04-08T10:01:59;31.47;;;16.43;;
20970;SDS011;10644;48.834;10.088;2023-04-08T10:04:29;25.57;;;14.60;;
20970;SDS011;10644;48.834;10.088;2023-04-08T10:07:03;23.80;;;13.67;;
20970;SDS011;10644;48.834;10.088;2023-04-08T10:09:30;35.17;;;15.40;;
20970;SDS011;10644;48.834;10.088;2023-04-08T10:11:56;29.17;;;16.13;;
20970;SDS011;10644;48.834;10.088;2023-04-08T10:14:22;32.37;;;15.67;;
20970;SDS011;10644;48.834;10.088;2023-04-08T10:16:47;21.60;;;13.40;;
20970;SDS011;10644;48.834;10.088;2023-04-08T10:27:40;21.13;;;13.60;;
20970;SDS011;10644;48.834;10.088;2023-04-08T10:30:34;34.27;;;17.00;;
20970;SDS011;10644;48.834;10.088;2023-04-08T10:32:56;23.70;;;15.57;;
20970;SDS011;10644;48.834;10.088;2023-04-08T10:35:36;23.50;;;13.07;;
20970;SDS011;10644;48.834;10.088;2023-04-08T10:38:08;24.57;;;13.93;;
20970;SDS011;10644;48.834;10.088;2023-04-08T10:40:37;23.97;;;14.07;;
20970;SDS011;10644;48.834;10.088;2023-04-08T10:43:05;36.23;;;15.30;;
20970;SDS011;10644;48.834;10.088;2023-04-08T10:45:33;23.97;;;14.50;;
20970;SDS011;10644;48.834;10.088;2023-04-08T10:48:14;32.60;;;14.17;;
20970;SDS011;10644;48.834;10.088;2023-04-08T10:50:42;24.03;;;13.03;;
20970;SDS011;10644;48.834;10.088;2023-04-08T10:53:08;25.40;;;13.03;;
20970;SDS011;10644;48.834;10.088;2023-04-08T10:55:34;22.20;;;13.93;;
20970;SDS011;10644;48.834;10.088;2023-04-08T10:58:06;19.40;;;12.10;;
20970;SDS011;10644;48.834;10.088;2023-04-08T11:00:33;25.93;;;13.07;;
20970;SDS011;10644;48.834;10.088;2023-04-08T11:03:03;21.92;;;13.45;;
20970;SDS011;10644;48.834;10.088;2023-04-08T11:05:45;18.20;;;12.60;;
20970;SDS011;10644;48.834;10.088;2023-04-08T11:08:13;18.30;;;11.73;;
20970;SDS011;10644;48.834;10.088;2023-04-08T11:10:38;16.87;;;11.30;;
20970;SDS011;10644;48.834;10.088;2023-04-08T11:13:05;26.77;;;11.40;;
20970;SDS011;10644;48.834;10.088;2023-04-08T11:15:32;27.90;;;13.47;;
20970;SDS011;10644;48.834;10.088;2023-04-08T11:18:00;17.93;;;12.20;;
20970;SDS011;10644;48.834;10.088;2023-04-08T11:20:27;19.87;;;11.97;;
20970;SDS011;10644;48.834;10.088;2023-04-08T11:22:52;24.40;;;12.27;;
20970;SDS011;10644;48.834;10.088;2023-04-08T11:25:19;19.83;;;11.53;;
20970;SDS011;10644;48.834;10.088;2023-04-08T11:27:44;16.20;;;11.30;;
20970;SDS011;10644;48.834;10.088;2023-04-08T11:30:14;25.27;;;11.93;;
20970;SDS011;10644;48.834;10.088;2023-04-08T11:32:39;19.27;;;10.80;;
20970;SDS011;10644;48.834;10.088;2023-04-08T11:35:05;16.30;;;10.97;;
20970;SDS011;10644;48.834;10.088;2023-04-08T11:37:38;52.57;;;15.27;;
20970;SDS011;10644;48.834;10.088;2023-04-08T11:40:11;30.70;;;13.50;;
20970;SDS011;10644;48.834;10.088;2023-04-08T11:42:37;21.07;;;13.37;;
20970;SDS011;10644;48.834;10.088;2023-04-08T11:45:13;37.30;;;12.00;;
20970;SDS011;10644;48.834;10.088;2023-04-08T11:47:43;18.93;;;11.20;;
20970;SDS011;10644;48.834;10.088;2023-04-08T11:50:08;17.63;;;11.60;;
20970;SDS011;10644;48.834;10.088;2023-04-08T11:55:09;15.53;;;8.50;;
20970;SDS011;10644;48.834;10.088;2023-04-08T11:57:36;20.13;;;11.83;;
20970;SDS011;10644;48.834;10.088;2023-04-08T12:00:04;21.70;;;11.40;;
20970;SDS011;10644;48.834;10.088;2023-04-08T12:02:31;18.60;;;11.50;;
20970;SDS011;10644;48.834;10.088;2023-04-08T12:04:56;17.10;;;11.60;;
20970;SDS011;10644;48.834;10.088;2023-04-08T12:07:22;20.60;;;11.53;;
20970;SDS011;10644;48.834;10.088;2023-04-08T12:09:47;28.30;;;14.83;;
20970;SDS011;10644;48.834;10.088;2023-04-08T12:12:12;31.13;;;17.07;;
20970;SDS011;10644;48.834;10.088;2023-04-08T12:14:37;26.43;;;15.10;;
20970;SDS011;10644;48.834;10.088;2023-04-08T12:17:03;19.50;;;11.50;;
20970;SDS011;10644;48.834;10.088;2023-04-08T12:19:28;17.93;;;10.87;;
20970;SDS011;10644;48.834;10.088;2023-04-08T12:21:53;18.93;;;10.53;;
20970;SDS011;10644;48.834;10.088;2023-04-08T12:24:19;21.20;;;9.87;;
20970;SDS011;10644;48.834;10.088;2023-04-08T12:26:45;15.47;;;10.20;;
20970;SDS011;10644;48.834;10.088;2023-04-08T12:29:10;16.63;;;9.60;;
20970;SDS011;10644;48.834;10.088;2023-04-08T12:31:36;14.70;;;9.83;;
20970;SDS011;10644;48.834;10.088;2023-04-08T12:34:01;14.73;;;9.90;;
20970;SDS011;10644;48.834;10.088;2023-04-08T12:36:26;16.10;;;10.10;;
20970;SDS011;10644;48.834;10.088;2023-04-08T12:38:52;17.73;;;10.90;;
20970;SDS011;10644;48.834;10.088;2023-04-08T12:41:17;14.43;;;9.83;;
20970;SDS011;10644;48.834;10.088;2023-04-08T12:43:42;16.13;;;9.53;;
20970;SDS011;10644;48.834;10.088;2023-04-08T12:46:08;18.33;;;10.20;;
20970;SDS011;10644;48.834;10.088;2023-04-08T12:48:33;18.13;;;11.07;;
20970;SDS011;10644;48.834;10.088;2023-04-08T12:50:58;22.63;;;11.40;;
20970;SDS011;10644;48.834;10.088;2023-04-08T12:53:24;21.77;;;10.93;;
20970;SDS011;10644;48.834;10.088;2023-04-08T12:55:49;18.20;;;11.40;;
20970;SDS011;10644;48.834;10.088;2023-04-08T12:58:16;19.53;;;11.27;;
20970;SDS011;10644;48.834;10.088;2023-04-08T13:00:44;15.20;;;11.17;;
20970;SDS011;10644;48.834;10.088;2023-04-08T13:03:11;17.00;;;10.30;;
20970;SDS011;10644;48.834;10.088;2023-04-08T13:05:37;16.80;;;10.77;;
20970;SDS011;10644;48.834;10.088;2023-04-08T13:08:03;18.40;;;11.60;;
20970;SDS011;10644;48.834;10.088;2023-04-08T13:10:31;15.40;;;10.73;;
20970;SDS011;10644;48.834;10.088;2023-04-08T13:12:56;17.77;;;11.53;;
20970;SDS011;10644;48.834;10.088;2023-04-08T13:15:22;17.57;;;10.80;;
20970;SDS011;10644;48.834;10.088;2023-04-08T13:17:47;17.03;;;10.57;;
20970;SDS011;10644;48.834;10.088;2023-04-08T13:20:13;17.67;;;11.37;;
20970;SDS011;10644;48.834;10.088;2023-04-08T13:22:38;17.60;;;10.73;;
20970;SDS011;10644;48.834;10.088;2023-04-08T13:25:05;17.80;;;11.60;;
20970;SDS011;10644;48.834;10.088;2023-04-08T13:27:31;16.10;;;11.07;;
20970;SDS011;10644;48.834;10.088;2023-04-08T13:29:56;19.37;;;11.40;;
20970;SDS011;10644;48.834;10.088;2023-04-08T13:32:24;19.20;;;12.10;;
20970;SDS011;10644;48.834;10.088;2023-04-08T13:34:50;15.70;;;10.43;;
20970;SDS011;10644;48.834;10.088;2023-04-08T13:37:17;17.83;;;10.57;;
20970;SDS011;10644;48.834;10.088;2023-04-08T13:39:43;18.83;;;12.43;;
20970;SDS011;10644;48.834;10.088;2023-04-08T13:42:10;18.53;;;10.80;;
20970;SDS011;10644;48.834;10.088;2023-04-08T13:44:35;15.07;;;8.83;;
20970;SDS011;10644;48.834;10.088;2023-04-08T13:47:03;16.33;;;11.60;;
20970;SDS011;10644;48.834;10.088;2023-04-08T13:49:28;17.30;;;9.90;;
20970;SDS011;10644;48.834;10.088;2023-04-08T13:51:54;16.03;;;11.40;;
20970;SDS011;10644;48.834;10.088;2023-04-08T13:54:19;20.30;;;13.43;;
20970;SDS011;10644;48.834;10.088;2023-04-08T13:56:44;16.30;;;9.60;;
20970;SDS011;10644;48.834;10.088;2023-04-08T13:59:10;21.00;;;10.73;;
20970;SDS011;10644;48.834;10.088;2023-04-08T14:01:35;16.07;;;11.80;;
20970;SDS011;10644;48.834;10.088;2023-04-08T14:04:01;20.67;;;10.47;;
20970;SDS011;10644;48.834;10.088;2023-04-08T14:06:26;16.80;;;10.67;;
20970;SDS011;10644;48.834;10.088;2023-04-08T14:08:51;22.03;;;11.50;;
20970;SDS011;10644;48.834;10.088;2023-04-08T14:11:17;20.08;;;11.70;;
20970;SDS011;10644;48.834;10.088;2023-04-08T14:13:42;19.27;;;12.30;;
20970;SDS011;10644;48.834;10.088;2023-04-08T14:16:07;22.90;;;11.97;;
20970;SDS011;10644;48.834;10.088;2023-04-08T14:18:33;19.93;;;11.70;;
20970;SDS011;10644;48.834;10.088;2023-04-08T14:20:58;19.57;;;12.00;;
20970;SDS011;10644;48.834;10.088;2023-04-08T14:23:23;17.70;;;12.33;;
20970;SDS011;10644;48.834;10.088;2023-04-08T14:25:49;17.30;;;11.20;;